Time;durP1;ratioP1;P1;durP2;ratioP2;P2;SDS_P1;SDS_P2;PMS_P1;PMS_P2;Temp;Humidity;BMP_temperature;BMP_pressure;BME280_temperature;BME280_humidity;BME280_pressure;Samples;Min_cycle;Max_cycle;Signal;HPM_P1;HPM_P2
2021/06/23 00:00:22;;;;;;;9.60;2.70;;;13.10;99.90;;;;;;5023226;28;20053;-67
2021/06/23 00:02:48;;;;;;;16.65;2.83;;;13.10;99.90;;;;;;5022413;28;20049;-68
2021/06/23 00:05:15;;;;;;;10.93;2.67;;;13.10;99.90;;;;;;5011770;28;20054;-68
2021/06/23 00:07:41;;;;;;;12.80;2.27;;;13.10;99.90;;;;;;5020993;28;20046;-68
2021/06/23 00:10:08;;;;;;;7.53;2.65;;;13.00;99.90;;;;;;5022937;28;20065;-67
2021/06/23 00:12:34;;;;;;;8.02;2.67;;;13.10;99.90;;;;;;5023305;28;20046;-68
2021/06/23 00:14:59;;;;;;;15.23;3.13;;;13.10;99.90;;;;;;5022860;28;20057;-67
2021/06/23 00:17:28;;;;;;;18.65;3.30;;;13.10;99.90;;;;;;5013700;28;20133;-67
2021/06/23 00:19:54;;;;;;;14.65;2.75;;;13.10;99.90;;;;;;5017300;28;20054;-68
2021/06/23 00:22:20;;;;;;;13.40;2.83;;;13.10;99.90;;;;;;5016157;28;20045;-68
2021/06/23 00:24:46;;;;;;;16.67;2.85;;;13.10;99.90;;;;;;5023001;28;20149;-67
2021/06/23 00:27:12;;;;;;;8.90;2.65;;;13.10;99.90;;;;;;5016926;28;20046;-67
2021/06/23 00:29:38;;;;;;;12.27;2.85;;;13.10;99.90;;;;;;5015375;28;20092;-67
2021/06/23 00:32:04;;;;;;;7.00;2.50;;;13.10;99.90;;;;;;5022722;28;20042;-67
2021/06/23 00:34:31;;;;;;;4.75;2.53;;;13.10;99.90;;;;;;5022505;28;20096;-67
2021/06/23 00:36:56;;;;;;;7.50;2.90;;;13.10;99.90;;;;;;5020234;28;20054;-67
2021/06/23 00:39:23;;;;;;;12.05;3.33;;;13.00;99.90;;;;;;5011808;28;20050;-68
2021/06/23 00:41:49;;;;;;;8.10;2.40;;;13.10;99.90;;;;;;5017449;28;20039;-68
2021/06/23 00:44:17;;;;;;;13.68;2.40;;;13.10;99.90;;;;;;5021688;28;20050;-68
2021/06/23 00:46:43;;;;;;;20.40;3.63;;;13.10;99.90;;;;;;5023006;28;20046;-67
2021/06/23 00:49:10;;;;;;;11.60;3.33;;;13.10;99.90;;;;;;5022686;28;20068;-67
2021/06/23 00:51:37;;;;;;;30.27;4.03;;;13.10;99.90;;;;;;5023093;28;20125;-68
2021/06/23 00:54:10;;;;;;;8.27;2.63;;;13.10;99.90;;;;;;5022821;28;20073;-67
2021/06/23 00:56:37;;;;;;;10.43;2.88;;;13.10;99.90;;;;;;5022711;28;20261;-67
2021/06/23 00:59:05;;;;;;;11.05;2.95;;;13.10;99.90;;;;;;5022365;28;20038;-68
2021/06/23 01:01:33;;;;;;;9.88;2.53;;;13.10;99.90;;;;;;5022375;28;20104;-69
2021/06/23 01:04:00;;;;;;;6.70;3.03;;;13.00;99.90;;;;;;5008654;28;20126;-67
2021/06/23 01:06:26;;;;;;;5.97;2.45;;;13.00;99.90;;;;;;5022621;28;20046;-67
2021/06/23 01:08:53;;;;;;;8.80;2.75;;;13.00;99.90;;;;;;5023678;28;20046;-67
2021/06/23 01:11:21;;;;;;;5.20;2.43;;;13.10;99.90;;;;;;5016798;28;20046;-67
2021/06/23 01:13:59;;;;;;;9.98;2.30;;;13.10;99.90;;;;;;5021096;28;20052;-67
2021/06/23 01:16:28;;;;;;;6.82;2.47;;;13.10;99.90;;;;;;5021640;28;20042;-68
2021/06/23 01:18:56;;;;;;;9.73;3.00;;;13.00;99.90;;;;;;5025830;28;20041;-68
2021/06/23 01:21:22;;;;;;;;;;;13.00;99.90;;;;;;5026461;28;20049;-67
2021/06/23 01:23:48;;;;;;;13.15;2.53;;;13.00;99.90;;;;;;5026065;28;19921;-68
2021/06/23 01:26:14;;;;;;;13.52;2.25;;;13.00;99.90;;;;;;5025986;28;20045;-68
2021/06/23 01:28:40;;;;;;;4.68;2.60;;;13.00;99.90;;;;;;5021388;28;20081;-68
2021/06/23 01:31:06;;;;;;;8.40;3.30;;;12.90;99.90;;;;;;5009647;28;20050;-68
2021/06/23 01:33:33;;;;;;;20.25;3.40;;;12.90;99.90;;;;;;5022521;28;20120;-68
2021/06/23 01:35:59;;;;;;;9.05;2.28;;;12.90;99.90;;;;;;5025700;28;20502;-67
2021/06/23 01:38:26;;;;;;;13.00;2.65;;;12.90;99.90;;;;;;5025691;28;20045;-69
2021/06/23 01:40:53;;;;;;;7.65;3.38;;;12.90;99.90;;;;;;5025752;28;20042;-68
2021/06/23 01:43:19;;;;;;;12.60;3.17;;;12.90;99.90;;;;;;5026069;28;20073;-68
2021/06/23 01:45:45;;;;;;;11.48;3.47;;;12.90;99.90;;;;;;5024895;28;20076;-68
2021/06/23 01:48:23;;;;;;;14.27;3.67;;;12.90;99.90;;;;;;5025772;28;20042;-67
2021/06/23 01:50:59;;;;;;;12.18;3.40;;;12.80;99.90;;;;;;5025515;28;20306;-68
2021/06/23 01:53:26;;;;;;;8.10;3.20;;;12.90;99.90;;;;;;5025744;28;20046;-68
2021/06/23 01:55:53;;;;;;;12.35;3.08;;;12.90;99.90;;;;;;5025284;28;20056;-68
2021/06/23 01:58:23;;;;;;;8.25;2.88;;;12.90;99.90;;;;;;5025876;28;20041;-68
2021/06/23 02:00:59;;;;;;;12.02;3.47;;;13.00;99.90;;;;;;5016160;28;20046;-68
2021/06/23 02:03:34;;;;;;;7.60;3.78;;;13.00;99.90;;;;;;5025497;28;20064;-67
2021/06/23 02:06:07;;;;;;;15.82;3.13;;;13.00;99.90;;;;;;5015989;28;20057;-67
2021/06/23 02:08:51;;;;;;;10.50;2.58;;;13.00;99.90;;;;;;5025199;28;20045;-67
2021/06/23 02:11:36;;;;;;;8.45;3.30;;;13.00;99.90;;;;;;5023087;28;20069;-67
2021/06/23 02:14:18;;;;;;;10.45;3.63;;;12.90;99.90;;;;;;5017312;28;20081;-67
2021/06/23 02:16:47;;;;;;;11.40;3.20;;;12.90;99.90;;;;;;5024997;28;20053;-68
2021/06/23 02:19:14;;;;;;;7.80;2.85;;;13.00;99.90;;;;;;5025018;28;20033;-68
2021/06/23 02:21:40;;;;;;;14.40;3.58;;;12.90;99.90;;;;;;5018282;28;20042;-68
2021/06/23 02:24:07;;;;;;;12.48;3.75;;;12.90;99.90;;;;;;5025121;28;20073;-68
2021/06/23 02:26:34;;;;;;;9.95;2.95;;;12.90;99.90;;;;;;5024249;28;20093;-67
2021/06/23 02:29:01;;;;;;;13.67;3.67;;;12.90;99.90;;;;;;5024763;28;20069;-67
2021/06/23 02:31:28;;;;;;;9.82;3.55;;;12.80;99.90;;;;;;5024179;28;20062;-69
2021/06/23 02:33:55;;;;;;;12.57;3.30;;;12.90;99.90;;;;;;5024687;28;20105;-67
2021/06/23 02:36:22;;;;;;;9.43;3.22;;;12.90;99.90;;;;;;5018904;28;20113;-68
2021/06/23 02:38:49;;;;;;;10.15;3.58;;;12.90;99.90;;;;;;5011828;28;20045;-68
2021/06/23 02:41:17;;;;;;;7.57;3.13;;;12.90;99.90;;;;;;5024426;28;20077;-67
2021/06/23 02:43:44;;;;;;;15.45;3.55;;;12.90;99.90;;;;;;5024630;28;20072;-67
2021/06/23 02:46:10;;;;;;;14.87;3.83;;;12.90;99.90;;;;;;5019462;28;20049;-67
2021/06/23 02:48:36;;;;;;;11.90;3.47;;;12.90;99.90;;;;;;5024190;28;20049;-67
2021/06/23 02:51:06;;;;;;;8.75;3.25;;;12.90;99.90;;;;;;5024140;28;20109;-67
2021/06/23 02:53:33;;;;;;;10.65;3.25;;;12.90;99.90;;;;;;5024627;28;20046;-68
2021/06/23 02:56:00;;;;;;;12.50;3.73;;;12.90;99.90;;;;;;5024586;28;20041;-68
2021/06/23 02:58:26;;;;;;;11.20;3.40;;;12.90;99.90;;;;;;5022834;28;20303;-67
2021/06/23 03:00:53;;;;;;;9.50;3.03;;;12.80;99.90;;;;;;5023854;28;20193;-68
2021/06/23 03:03:19;;;;;;;9.50;3.35;;;12.90;99.90;;;;;;5016604;28;20099;-68
2021/06/23 03:05:46;;;;;;;16.52;3.13;;;12.90;99.90;;;;;;5023448;28;20049;-67
2021/06/23 03:08:12;;;;;;;13.98;3.67;;;12.80;99.90;;;;;;5025188;28;20084;-68
2021/06/23 03:10:37;;;;;;;8.40;2.90;;;12.90;99.90;;;;;;5023925;28;20046;-67
2021/06/23 03:13:03;;;;;;;11.38;3.28;;;12.90;99.90;;;;;;5015627;28;20053;-67
2021/06/23 03:15:29;;;;;;;10.88;3.13;;;12.90;99.90;;;;;;5023771;28;20097;-68
2021/06/23 03:17:55;;;;;;;10.82;3.15;;;12.80;99.90;;;;;;5023701;28;20042;-68
2021/06/23 03:20:21;;;;;;;8.88;2.83;;;12.80;99.90;;;;;;5013887;28;20046;-67
2021/06/23 03:22:47;;;;;;;9.73;3.63;;;12.80;99.90;;;;;;5020379;28;20049;-68
2021/06/23 03:25:13;;;;;;;12.25;2.80;;;12.80;99.90;;;;;;5023682;28;20046;-68
2021/06/23 03:27:39;;;;;;;8.90;2.20;;;12.80;99.90;;;;;;5023592;28;20088;-67
2021/06/23 03:30:06;;;;;;;9.02;3.10;;;12.70;99.90;;;;;;5023367;28;20108;-68
2021/06/23 03:32:33;;;;;;;7.60;2.65;;;12.80;99.90;;;;;;5024063;28;20046;-68
2021/06/23 03:35:02;;;;;;;10.60;3.05;;;12.80;99.90;;;;;;5023400;28;20046;-67
2021/06/23 03:37:32;;;;;;;11.50;3.28;;;12.80;99.90;;;;;;5022651;28;20050;-68
2021/06/23 03:40:00;;;;;;;9.20;3.22;;;12.80;99.90;;;;;;5019223;28;20046;-67
2021/06/23 03:42:26;;;;;;;7.07;2.50;;;12.80;99.90;;;;;;5017672;28;20046;-68
2021/06/23 03:44:52;;;;;;;10.35;2.17;;;12.90;99.90;;;;;;5023229;28;20065;-68
2021/06/23 03:47:18;;;;;;;7.82;2.50;;;12.90;99.90;;;;;;5023536;28;20046;-68
2021/06/23 03:49:44;;;;;;;12.32;2.92;;;12.90;99.90;;;;;;5022846;28;20065;-68
2021/06/23 03:52:09;;;;;;;12.73;3.08;;;12.90;99.90;;;;;;5023515;28;20065;-68
2021/06/23 03:54:35;;;;;;;10.57;3.53;;;12.90;99.90;;;;;;5023283;28;20033;-68
2021/06/23 03:57:01;;;;;;;7.78;3.58;;;12.90;99.90;;;;;;5021739;28;20057;-68
2021/06/23 03:59:27;;;;;;;11.43;2.83;;;12.90;99.90;;;;;;5022980;28;20045;-67
2021/06/23 04:01:53;;;;;;;11.73;3.30;;;12.90;99.90;;;;;;5023424;28;20054;-67
2021/06/23 04:04:19;;;;;;;10.27;3.05;;;12.90;99.90;;;;;;5023446;28;20486;-68
2021/06/23 04:06:45;;;;;;;6.47;2.80;;;13.00;99.90;;;;;;5021388;28;20045;-68
2021/06/23 04:09:11;;;;;;;10.05;2.80;;;13.00;99.90;;;;;;5022634;28;20409;-68
2021/06/23 04:11:37;;;;;;;8.07;2.60;;;13.00;99.90;;;;;;5023304;28;20168;-69
2021/06/23 04:14:04;;;;;;;13.15;3.05;;;13.00;99.90;;;;;;5023384;28;20046;-68
2021/06/23 04:16:32;;;;;;;6.85;3.05;;;12.90;99.90;;;;;;5022843;28;20049;-68
2021/06/23 04:18:58;;;;;;;10.60;3.28;;;12.90;99.90;;;;;;5023010;28;20046;-68
2021/06/23 04:21:24;;;;;;;7.63;3.30;;;12.90;99.90;;;;;;5019091;28;20034;-68
2021/06/23 04:23:54;;;;;;;11.88;4.25;;;12.90;99.90;;;;;;5023211;28;20050;-68
2021/06/23 04:26:19;;;;;;;9.55;4.03;;;12.90;99.90;;;;;;5023057;28;20050;-68
2021/06/23 04:28:46;;;;;;;13.85;3.85;;;12.90;99.90;;;;;;5022987;28;20038;-68
2021/06/23 04:31:12;;;;;;;9.02;3.53;;;12.90;99.90;;;;;;5022321;28;20125;-68
2021/06/23 04:33:39;;;;;;;12.23;4.00;;;12.80;99.90;;;;;;5023304;28;20046;-69
2021/06/23 04:36:05;;;;;;;12.05;4.07;;;12.80;99.90;;;;;;5022902;28;20046;-68
2021/06/23 04:38:31;;;;;;;11.95;4.13;;;12.90;99.90;;;;;;5023235;28;20042;-67
2021/06/23 04:40:57;;;;;;;13.43;3.70;;;12.90;99.90;;;;;;5022581;28;20117;-69
2021/06/23 04:43:23;;;;;;;16.38;4.15;;;12.90;99.90;;;;;;5023092;28;20098;-69
2021/06/23 04:45:49;;;;;;;14.60;3.72;;;12.90;99.90;;;;;;5022545;28;20065;-69
2021/06/23 04:48:15;;;;;;;9.43;3.35;;;12.90;99.90;;;;;;5023027;28;20046;-69
2021/06/23 04:50:41;;;;;;;18.80;3.75;;;12.90;99.90;;;;;;5025814;28;20057;-68
2021/06/23 04:53:07;;;;;;;11.15;3.65;;;12.90;99.90;;;;;;5026471;28;20101;-69
2021/06/23 04:55:33;;;;;;;13.32;3.70;;;13.00;99.90;;;;;;5026494;28;20076;-68
2021/06/23 04:57:59;;;;;;;16.52;4.50;;;13.00;99.90;;;;;;5026966;28;20051;-68
2021/06/23 05:00:25;;;;;;;12.65;3.70;;;13.00;99.90;;;;;;5025795;28;20096;-68
2021/06/23 05:02:51;;;;;;;13.70;2.87;;;13.00;99.90;;;;;;5026800;28;20069;-68
2021/06/23 05:05:17;;;;;;;11.82;3.15;;;13.00;99.90;;;;;;5026352;28;20498;-68
2021/06/23 05:07:43;;;;;;;11.93;3.45;;;13.10;99.90;;;;;;5026864;28;20126;-68
2021/06/23 05:10:09;;;;;;;13.63;4.00;;;13.10;99.90;;;;;;5026465;28;20116;-68
2021/06/23 05:12:35;;;;;;;13.50;3.40;;;13.10;99.90;;;;;;5026673;28;20044;-68
2021/06/23 05:15:01;;;;;;;8.13;2.83;;;13.10;99.90;;;;;;5025842;28;20042;-68
2021/06/23 05:17:26;;;;;;;9.95;3.28;;;13.10;99.90;;;;;;5025896;28;20060;-69
2021/06/23 05:19:53;;;;;;;18.15;3.47;;;13.00;99.90;;;;;;5019719;28;20038;-68
2021/06/23 05:22:19;;;;;;;11.68;3.63;;;13.10;99.90;;;;;;5021516;28;20058;-67
2021/06/23 05:24:45;;;;;;;17.00;3.10;;;13.10;99.90;;;;;;5025751;28;20046;-67
2021/06/23 05:27:11;;;;;;;14.23;3.20;;;13.10;99.90;;;;;;5026098;28;20048;-68
2021/06/23 05:29:37;;;;;;;13.57;4.30;;;13.10;99.90;;;;;;5025552;28;20057;-67
2021/06/23 05:32:04;;;;;;;9.00;2.63;;;13.10;99.90;;;;;;5017093;28;20150;-68
2021/06/23 05:34:30;;;;;;;13.80;3.92;;;13.10;99.90;;;;;;5020862;28;20054;-68
2021/06/23 05:36:56;;;;;;;9.25;3.78;;;13.10;99.90;;;;;;5025777;28;20046;-68
2021/06/23 05:39:23;;;;;;;15.07;3.78;;;13.10;99.90;;;;;;5025591;28;20535;-68
2021/06/23 05:41:49;;;;;;;9.40;3.20;;;13.10;99.90;;;;;;5020480;28;20097;-68
2021/06/23 05:44:14;;;;;;;13.60;4.35;;;13.10;99.90;;;;;;5016527;28;20057;-69
2021/06/23 05:46:40;;;;;;;13.93;3.30;;;13.20;99.90;;;;;;5026103;28;20097;-68
2021/06/23 05:49:06;;;;;;;12.30;3.55;;;13.00;99.90;;;;;;5025579;28;20069;-68
2021/06/23 05:51:32;;;;;;;15.05;4.40;;;13.10;99.90;;;;;;5015087;28;20069;-68
2021/06/23 05:53:58;;;;;;;15.93;4.10;;;13.10;99.90;;;;;;5025223;28;20516;-68
2021/06/23 05:56:24;;;;;;;8.40;3.50;;;13.20;99.90;;;;;;5015506;28;20034;-68
2021/06/23 05:58:50;;;;;;;9.27;3.50;;;13.20;99.90;;;;;;5025162;28;20042;-68
2021/06/23 06:01:16;;;;;;;16.38;3.67;;;13.30;99.90;;;;;;5023856;28;20061;-68
2021/06/23 06:03:42;;;;;;;15.85;4.05;;;13.30;99.90;;;;;;5025303;28;20044;-68
2021/06/23 06:06:08;;;;;;;17.48;4.38;;;13.30;99.90;;;;;;5024390;28;20045;-67
2021/06/23 06:08:33;;;;;;;14.30;4.00;;;13.30;99.90;;;;;;5025780;28;20076;-67
2021/06/23 06:10:59;;;;;;;13.30;3.40;;;13.40;99.90;;;;;;5025429;28;20149;-67
2021/06/23 06:13:26;;;;;;;13.05;3.40;;;13.40;99.90;;;;;;5025112;28;20046;-68
2021/06/23 06:15:52;;;;;;;10.98;3.00;;;13.50;99.90;;;;;;5024325;28;20137;-68
2021/06/23 06:18:18;;;;;;;14.95;3.70;;;13.40;99.90;;;;;;5025353;28;20053;-68
2021/06/23 06:20:43;;;;;;;12.68;3.85;;;13.50;99.90;;;;;;5024393;28;20045;-67
2021/06/23 06:23:09;;;;;;;10.55;3.38;;;13.50;99.90;;;;;;5025139;28;20050;-68
2021/06/23 06:25:36;;;;;;;9.38;3.03;;;13.50;99.90;;;;;;5024505;28;20359;-68
2021/06/23 06:28:02;;;;;;;10.07;2.90;;;13.40;99.90;;;;;;5020842;28;20042;-68
2021/06/23 06:30:28;;;;;;;9.30;2.53;;;13.40;99.90;;;;;;5015920;28;20050;-68
2021/06/23 06:32:54;;;;;;;8.90;2.90;;;13.40;99.90;;;;;;5024402;28;20420;-68
2021/06/23 06:35:20;;;;;;;14.63;3.45;;;13.40;99.90;;;;;;5024666;28;20041;-67
2021/06/23 06:37:46;;;;;;;13.90;3.53;;;13.40;99.90;;;;;;5024206;28;20052;-68
2021/06/23 06:40:13;;;;;;;8.70;2.72;;;13.40;99.90;;;;;;5012393;28;20045;-67
2021/06/23 06:42:39;;;;;;;16.23;4.10;;;13.50;99.90;;;;;;5024840;28;20432;-67
2021/06/23 06:45:06;;;;;;;10.07;3.05;;;13.60;99.90;;;;;;5023847;28;20080;-67
2021/06/23 06:47:31;;;;;;;19.95;4.28;;;13.60;99.90;;;;;;5024758;28;20057;-67
2021/06/23 06:49:57;;;;;;;13.00;3.10;;;13.60;99.90;;;;;;5023883;28;20053;-67
2021/06/23 06:52:23;;;;;;;16.65;3.35;;;13.70;99.90;;;;;;5023916;28;20045;-67
2021/06/23 06:54:49;;;;;;;11.45;2.75;;;13.70;99.90;;;;;;5024313;28;20056;-68
2021/06/23 06:57:15;;;;;;;10.18;2.72;;;13.70;99.90;;;;;;5024366;28;20084;-68
2021/06/23 06:59:41;;;;;;;16.23;3.25;;;13.70;99.90;;;;;;5023977;28;20045;-68
2021/06/23 07:02:07;;;;;;;9.75;2.80;;;13.70;99.90;;;;;;5010349;28;20049;-67
2021/06/23 07:04:33;;;;;;;8.75;2.42;;;13.70;99.90;;;;;;5013980;28;20106;-68
2021/06/23 07:06:59;;;;;;;13.38;2.53;;;13.70;99.90;;;;;;5023766;28;20046;-67
2021/06/23 07:09:25;;;;;;;10.45;2.22;;;13.70;99.90;;;;;;5023732;28;20055;-68
2021/06/23 07:11:51;;;;;;;12.88;2.67;;;13.80;99.90;;;;;;5023786;28;20042;-68
2021/06/23 07:14:20;;;;;;;9.57;2.90;;;13.90;99.90;;;;;;5023595;28;20054;-68
2021/06/23 07:16:46;;;;;;;9.90;2.47;;;13.90;99.90;;;;;;5024107;28;20409;-68
2021/06/23 07:19:12;;;;;;;11.82;2.50;;;13.90;99.90;;;;;;5022863;28;20506;-68
2021/06/23 07:21:38;;;;;;;8.60;2.15;;;13.90;99.90;;;;;;5018863;28;20057;-68
2021/06/23 07:24:04;;;;;;;16.40;2.83;;;14.10;99.90;;;;;;5024052;28;20528;-68
2021/06/23 07:26:30;;;;;;;16.33;3.28;;;14.10;99.90;;;;;;5023663;28;20050;-69
2021/06/23 07:28:59;;;;;;;9.23;2.78;;;14.20;99.90;;;;;;5024011;28;20057;-68
2021/06/23 07:34:00;;;;;;;16.20;3.38;;;14.30;99.90;;;;;;5023327;28;20034;-68
2021/06/23 07:36:34;;;;;;;8.00;2.58;;;14.40;99.90;;;;;;5027889;28;20069;-68
2021/06/23 07:39:02;;;;;;;10.25;2.25;;;14.30;99.90;;;;;;5023965;28;20053;-68
2021/06/23 07:41:28;;;;;;;12.05;2.72;;;14.30;99.90;;;;;;5023301;28;20121;-67
2021/06/23 07:43:54;;;;;;;5.80;2.13;;;14.30;99.90;;;;;;5015149;28;20088;-69
2021/06/23 07:46:20;;;;;;;14.98;2.60;;;14.20;99.90;;;;;;5017458;28;20049;-69
2021/06/23 07:48:49;;;;;;;7.43;2.38;;;14.30;99.90;;;;;;5023505;28;20042;-68
2021/06/23 07:51:18;;;;;;;10.10;3.33;;;14.20;99.90;;;;;;5023413;28;20054;-67
2021/06/23 07:54:06;;;;;;;17.80;3.03;;;14.30;99.90;;;;;;5023342;28;20045;-68
2021/06/23 08:10:06;;;;;;;6.40;2.42;;;14.50;99.90;;;;;;5023272;28;20073;-67
2021/06/23 08:12:42;;;;;;;10.23;3.28;;;14.30;99.90;;;;;;5021997;28;20102;-68
2021/06/23 08:15:09;;;;;;;11.65;2.45;;;14.40;99.90;;;;;;5022609;28;20073;-68
2021/06/23 08:17:34;;;;;;;8.30;2.90;;;14.50;99.90;;;;;;5023008;28;20046;-68
2021/06/23 08:20:00;;;;;;;14.40;3.50;;;14.40;99.90;;;;;;5015733;28;20069;-68
2021/06/23 08:22:26;;;;;;;11.18;2.80;;;14.30;99.90;;;;;;5016615;28;20042;-69
2021/06/23 08:24:52;;;;;;;9.73;3.50;;;14.30;99.90;;;;;;5024806;28;20069;-68
2021/06/23 08:27:18;;;;;;;7.65;2.13;;;14.20;99.90;;;;;;5027318;28;20050;-68
2021/06/23 08:29:43;;;;;;;13.32;2.33;;;14.20;99.90;;;;;;5026301;28;20073;-68
2021/06/23 08:32:09;;;;;;;9.63;2.58;;;14.30;99.90;;;;;;5027333;28;20046;-69
2021/06/23 08:34:35;;;;;;;15.68;2.50;;;14.40;99.90;;;;;;5026728;28;20037;-68
2021/06/23 08:37:01;;;;;;;9.00;2.20;;;14.40;99.90;;;;;;5027250;28;20037;-68
2021/06/23 08:39:27;;;;;;;8.43;2.25;;;14.50;99.90;;;;;;5026719;28;20045;-68
2021/06/23 08:41:53;;;;;;;9.85;2.45;;;14.50;99.90;;;;;;5026929;28;20042;-69
2021/06/23 08:44:18;;;;;;;8.90;2.70;;;14.50;99.90;;;;;;5026507;28;20041;-68
2021/06/23 08:46:49;;;;;;;6.80;2.28;;;14.40;99.90;;;;;;5026953;28;20493;-69
2021/06/23 08:49:16;;;;;;;24.52;3.67;;;14.40;99.90;;;;;;5026697;28;20157;-66
2021/06/23 08:51:43;;;;;;;12.52;2.67;;;14.50;99.90;;;;;;5026462;28;20057;-68
2021/06/23 08:54:09;;;;;;;11.77;2.80;;;14.50;99.90;;;;;;5026766;28;20056;-68
2021/06/23 08:56:35;;;;;;;15.70;2.38;;;14.60;99.90;;;;;;5026467;28;20068;-68
2021/06/23 08:59:05;;;;;;;5.35;1.75;;;14.60;99.90;;;;;;5026527;28;20061;-68
2021/06/23 09:01:32;;;;;;;9.90;1.98;;;14.60;99.90;;;;;;5013485;28;20134;-68
2021/06/23 09:04:14;;;;;;;9.98;1.92;;;14.50;99.90;;;;;;5021348;28;20109;-69
2021/06/23 09:07:00;;;;;;;6.00;1.75;;;14.60;99.90;;;;;;5020440;28;20073;-69
2021/06/23 09:09:30;;;;;;;6.93;2.17;;;14.60;99.90;;;;;;5015170;28;20046;-68
2021/06/23 09:12:04;;;;;;;6.10;1.90;;;14.60;99.90;;;;;;5026474;28;20041;-68
2021/06/23 09:14:32;;;;;;;13.43;2.17;;;14.60;99.90;;;;;;5025999;28;20152;-69
2021/06/23 09:17:15;;;;;;;10.13;2.25;;;14.50;99.90;;;;;;5026182;28;20054;-69
2021/06/23 09:19:45;;;;;;;10.95;2.13;;;14.70;99.90;;;;;;5024722;28;20517;-68
2021/06/23 09:22:40;;;;;;;10.52;2.17;;;14.70;99.90;;;;;;5026491;28;20046;-68
2021/06/23 09:25:23;;;;;;;13.32;2.40;;;14.90;99.90;;;;;;5014100;28;20049;-68
2021/06/23 09:27:57;;;;;;;10.70;2.05;;;14.90;99.90;;;;;;5026396;28;20477;-68
2021/06/23 09:30:38;;;;;;;8.32;2.30;;;15.00;99.90;;;;;;5025731;28;20038;-68
2021/06/23 09:33:18;;;;;;;10.50;2.88;;;15.10;99.90;;;;;;5025864;28;20143;-68
2021/06/23 09:35:44;;;;;;;8.98;2.17;;;15.10;99.90;;;;;;5025666;28;20053;-68
2021/06/23 09:38:33;;;;;;;10.40;2.30;;;15.20;99.90;;;;;;5026136;28;20056;-68
2021/06/23 09:41:00;;;;;;;5.70;2.13;;;15.20;99.90;;;;;;5025702;28;20049;-68
2021/06/23 09:43:40;;;;;;;8.88;1.90;;;15.10;99.90;;;;;;5017353;28;20048;-68
2021/06/23 09:46:28;;;;;;;6.30;1.70;;;15.10;99.90;;;;;;5024887;28;20046;-69
2021/06/23 09:49:07;;;;;;;8.95;2.67;;;14.90;99.90;;;;;;5019616;28;20129;-69
2021/06/23 09:51:46;;;;;;;;;;;15.00;99.90;;;;;;5021724;28;20092;-68
2021/06/23 09:54:13;;;;;;;9.65;1.63;;;14.90;99.90;;;;;;5026059;28;19921;-68
2021/06/23 09:56:46;;;;;;;5.00;2.08;;;14.90;99.90;;;;;;5025154;28;20050;-68
2021/06/23 09:59:28;;;;;;;13.05;1.85;;;14.90;99.90;;;;;;5025510;28;20547;-68
2021/06/23 10:01:55;;;;;;;9.60;2.20;;;15.00;99.90;;;;;;5025454;28;20042;-68
2021/06/23 10:04:21;;;;;;;7.38;1.80;;;14.90;99.90;;;;;;5024937;28;20506;-68
2021/06/23 10:06:46;;;;;;;6.53;1.77;;;14.90;99.90;;;;;;5025093;28;20046;-68
2021/06/23 10:09:24;;;;;;;8.65;2.08;;;15.00;99.90;;;;;;5024020;28;20109;-68
2021/06/23 10:11:53;;;;;;;7.43;1.90;;;14.90;99.90;;;;;;5025360;28;20046;-68
2021/06/23 10:14:20;;;;;;;9.32;2.10;;;14.80;99.90;;;;;;5024616;28;20050;-68
2021/06/23 10:16:51;;;;;;;8.90;2.65;;;14.80;99.90;;;;;;5024640;28;20080;-68
2021/06/23 10:19:17;;;;;;;12.77;1.90;;;14.80;99.90;;;;;;5023169;28;20045;-68
2021/06/23 10:21:43;;;;;;;8.88;2.67;;;14.70;99.90;;;;;;5017434;28;20049;-68
2021/06/23 10:24:11;;;;;;;9.57;2.40;;;14.70;99.90;;;;;;5024760;28;20056;-68
2021/06/23 10:26:52;;;;;;;13.02;2.88;;;14.90;99.90;;;;;;5016027;28;20045;-68
2021/06/23 10:29:25;;;;;;;5.18;2.33;;;15.00;99.90;;;;;;5023932;28;20045;-68
2021/06/23 10:31:52;;;;;;;7.60;2.38;;;15.10;99.90;;;;;;5024742;28;20049;-68
2021/06/23 10:34:19;;;;;;;8.38;2.10;;;15.20;99.90;;;;;;5024635;28;20137;-68
2021/06/23 10:36:46;;;;;;;;;;;15.10;99.90;;;;;;5019591;28;20068;-67
2021/06/23 10:39:15;;;;;;;8.70;2.15;;;15.10;99.90;;;;;;5016253;28;19933;-67
2021/06/23 10:41:56;;;;;;;6.28;2.13;;;15.20;99.90;;;;;;5024270;28;20046;-68
2021/06/23 10:44:27;;;;;;;6.50;1.90;;;15.30;99.90;;;;;;5023080;28;20053;-67
2021/06/23 10:46:56;;;;;;;9.32;2.60;;;15.20;99.90;;;;;;5024197;28;20144;-67
2021/06/23 10:49:50;;;;;;;10.95;3.38;;;15.20;99.90;;;;;;5023298;28;20084;-67
2021/06/23 10:52:22;;;;;;;8.65;1.92;;;15.50;99.90;;;;;;5017616;28;20065;-67
2021/06/23 10:54:51;;;;;;;9.77;2.00;;;15.30;99.90;;;;;;5024358;28;20052;-68
2021/06/23 10:57:27;;;;;;;8.10;1.92;;;15.30;99.90;;;;;;5017025;28;20049;-67
2021/06/23 10:59:55;;;;;;;6.95;2.13;;;15.20;99.90;;;;;;5023784;28;20050;-67
2021/06/23 11:02:34;;;;;;;4.65;1.65;;;15.30;99.90;;;;;;5012475;28;20057;-68
2021/06/23 11:05:00;;;;;;;12.43;2.15;;;15.40;99.90;;;;;;5004740;28;20050;-68
2021/06/23 11:07:35;;;;;;;13.68;2.22;;;15.40;99.90;;;;;;5023509;28;20057;-68
2021/06/23 11:10:18;;;;;;;10.77;1.88;;;15.30;99.90;;;;;;5023466;28;20062;-68
2021/06/23 11:13:15;;;;;;;7.07;1.83;;;15.40;99.90;;;;;;5017960;28;20041;-68
2021/06/23 11:15:44;;;;;;;8.40;2.25;;;15.30;99.90;;;;;;5021081;28;20064;-68
2021/06/23 11:18:18;;;;;;;6.20;1.90;;;15.20;99.90;;;;;;5023513;28;20046;-68
2021/06/23 11:20:56;;;;;;;5.20;1.90;;;15.50;99.90;;;;;;5023708;28;20077;-68
2021/06/23 11:23:50;;;;;;;11.43;3.27;;;15.40;99.90;;;;;;5023606;28;20169;-68
2021/06/23 11:26:20;;;;;;;6.88;2.38;;;15.50;99.90;;;;;;5021107;28;20053;-67
2021/06/23 11:28:53;;;;;;;8.45;1.95;;;15.30;99.90;;;;;;5013107;28;20053;-69
2021/06/23 11:31:40;;;;;;;12.32;1.83;;;15.60;99.90;;;;;;5020533;28;20414;-68
2021/06/23 11:34:06;;;;;;;10.25;2.75;;;15.80;99.90;;;;;;5015924;28;20461;-68
2021/06/23 11:36:32;;;;;;;5.65;2.15;;;16.00;99.90;;;;;;5010323;28;20046;-69
2021/06/23 11:38:58;;;;;;;6.53;2.10;;;15.80;99.90;;;;;;5013672;28;20050;-68
2021/06/23 11:41:25;;;;;;;9.10;1.83;;;15.70;99.90;;;;;;5024067;28;20049;-68
2021/06/23 11:43:51;;;;;;;8.27;2.13;;;16.00;99.90;;;;;;5023380;28;20049;-68
2021/06/23 11:46:17;;;;;;;5.78;1.98;;;16.00;99.90;;;;;;5023124;28;20046;-68
2021/06/23 11:48:44;;;;;;;9.18;1.70;;;16.20;99.90;;;;;;5023741;28;20069;-68
2021/06/23 11:51:11;;;;;;;10.18;1.70;;;16.20;99.90;;;;;;5011484;28;20067;-68
2021/06/23 11:53:39;;;;;;;5.85;1.80;;;16.00;99.90;;;;;;5020350;28;20049;-68
2021/06/23 11:56:05;;;;;;;13.80;3.03;;;16.00;99.90;;;;;;5023511;28;20071;-68
2021/06/23 11:58:32;;;;;;;11.73;2.30;;;16.40;99.90;;;;;;5022544;28;20323;-68
2021/06/23 12:00:58;;;;;;;9.27;1.88;;;16.40;99.90;;;;;;5023228;28;20046;-69
2021/06/23 12:03:24;;;;;;;6.97;1.60;;;16.40;99.90;;;;;;5021918;28;20140;-68
2021/06/23 12:05:50;;;;;;;10.05;1.83;;;16.90;99.90;;;;;;5023039;28;20243;-69
2021/06/23 12:08:16;;;;;;;8.98;1.90;;;16.90;99.90;;;;;;5023288;28;20125;-69
2021/06/23 12:10:44;;;;;;;15.33;2.00;;;16.80;99.90;;;;;;5023062;28;20042;-68
2021/06/23 12:13:11;;;;;;;7.50;1.70;;;17.00;99.90;;;;;;5023701;28;20056;-69
2021/06/23 12:15:37;;;;;;;12.60;2.20;;;16.80;99.90;;;;;;5022907;28;20050;-69
2021/06/23 12:18:06;;;;;;;8.27;2.17;;;16.80;99.90;;;;;;5023073;28;20045;-69
2021/06/23 12:20:33;;;;;;;6.78;2.05;;;17.00;99.90;;;;;;5014409;28;20395;-68
2021/06/23 12:23:01;;;;;;;;;;;17.10;99.90;;;;;;5021628;28;20396;-69
2021/06/23 12:25:32;;;;;;;7.90;1.80;;;17.20;99.90;;;;;;5023379;28;19921;-69
2021/06/23 12:27:59;;;;;;;6.32;1.92;;;17.30;99.90;;;;;;5023481;28;20099;-69
2021/06/23 12:30:27;;;;;;;9.18;2.25;;;16.90;99.90;;;;;;5022394;28;20045;-69
2021/06/23 12:32:58;;;;;;;6.68;2.00;;;16.80;99.90;;;;;;5022587;28;20045;-70
2021/06/23 12:35:24;;;;;;;8.95;1.67;;;17.80;99.90;;;;;;5022323;28;20077;-69
2021/06/23 12:37:50;;;;;;;13.10;1.77;;;17.90;99.90;;;;;;5022881;28;20319;-69
2021/06/23 12:40:17;;;;;;;11.95;2.10;;;18.60;99.90;;;;;;5022994;28;20117;-69
2021/06/23 12:42:42;;;;;;;6.53;1.25;;;19.20;99.90;;;;;;5022780;28;20114;-70
2021/06/23 12:45:09;;;;;;;11.38;1.65;;;20.10;98.20;;;;;;5022339;28;20050;-69
2021/06/23 12:47:35;;;;;;;4.00;1.25;;;19.90;98.40;;;;;;5013863;28;20042;-68
2021/06/23 12:50:01;;;;;;;5.68;1.27;;;19.80;98.00;;;;;;5022997;28;20065;-68
2021/06/23 12:52:26;;;;;;;11.23;2.40;;;20.30;97.90;;;;;;5014411;28;20050;-68
2021/06/23 12:54:52;;;;;;;5.13;1.40;;;20.10;97.70;;;;;;5021625;28;20065;-68
2021/06/23 12:57:18;;;;;;;5.35;1.65;;;19.50;99.20;;;;;;5022756;28;20121;-68
2021/06/23 12:59:44;;;;;;;11.25;1.80;;;19.40;98.90;;;;;;5009680;28;20062;-68
2021/06/23 13:02:10;;;;;;;7.53;1.70;;;19.30;99.00;;;;;;5021487;28;20521;-69
2021/06/23 13:04:36;;;;;;;8.18;1.70;;;19.80;99.70;;;;;;5012425;28;20050;-68